sensor_id;sensor_type;location;lat;lon;timestamp;pressure;altitude;pressure_sealevel;temperature;humidity
15487;BME280;7845;53.698;10.078;2023-03-20T00:00:20;101453.50;;;12.98;100.00
15487;BME280;7845;53.698;10.078;2023-03-20T00:02:47;101454.38;;;12.94;100.00
15487;BME280;7845;53.698;10.078;2023-03-20T00:05:18;101451.78;;;12.94;100.00
15487;BME280;7845;53.698;10.078;2023-03-20T00:07:44;101450.06;;;12.88;100.00
15487;BME280;7845;53.698;10.078;2023-03-20T00:10:10;101457.91;;;12.91;100.00
15487;BME280;7845;53.698;10.078;2023-03-20T00:12:36;101459.59;;;12.97;100.00
15487;BME280;7845;53.698;10.078;2023-03-20T00:15:04;101459.59;;;13.00;100.00
15487;BME280;7845;53.698;10.078;2023-03-20T00:17:30;101457.91;;;12.93;100.00
15487;BME280;7845;53.698;10.078;2023-03-20T00:19:57;101457.88;;;12.97;100.00
15487;BME280;7845;53.698;10.078;2023-03-20T00:22:22;101463.13;;;12.96;100.00
15487;BME280;7845;53.698;10.078;2023-03-20T00:24:48;101455.28;;;12.93;100.00
15487;BME280;7845;53.698;10.078;2023-03-20T00:27:15;101458.81;;;12.89;100.00
15487;BME280;7845;53.698;10.078;2023-03-20T00:29:42;101457.06;;;12.89;100.00
15487;BME280;7845;53.698;10.078;2023-03-20T00:32:12;101455.25;;;12.97;100.00
15487;BME280;7845;53.698;10.078;2023-03-20T00:34:37;101453.53;;;12.95;100.00
15487;BME280;7845;53.698;10.078;2023-03-20T00:37:03;101458.72;;;12.96;100.00
15487;BME280;7845;53.698;10.078;2023-03-20T00:39:30;101464.06;;;12.86;100.00
15487;BME280;7845;53.698;10.078;2023-03-20T00:42:03;101458.81;;;12.89;100.00
15487;BME280;7845;53.698;10.078;2023-03-20T00:44:35;101462.28;;;12.92;100.00
15487;BME280;7845;53.698;10.078;2023-03-20T00:47:20;101446.53;;;12.94;100.00
15487;BME280;7845;53.698;10.078;2023-03-20T00:49:49;101449.22;;;12.82;100.00
15487;BME280;7845;53.698;10.078;2023-03-20T00:52:18;101451.03;;;12.73;100.00
15487;BME280;7845;53.698;10.078;2023-03-20T00:54:45;101448.41;;;12.78;100.00
15487;BME280;7845;53.698;10.078;2023-03-20T00:57:26;101452.75;;;12.81;100.00
15487;BME280;7845;53.698;10.078;2023-03-20T01:00:04;101451.09;;;12.66;100.00
15487;BME280;7845;53.698;10.078;2023-03-20T01:02:30;101451.09;;;12.63;100.00
15487;BME280;7845;53.698;10.078;2023-03-20T01:04:56;101455.41;;;12.74;100.00
15487;BME280;7845;53.698;10.078;2023-03-20T01:07:22;101458.03;;;12.74;100.00
15487;BME280;7845;53.698;10.078;2023-03-20T01:09:47;101454.50;;;12.75;100.00
15487;BME280;7845;53.698;10.078;2023-03-20T01:12:13;101461.47;;;12.80;100.00
15487;BME280;7845;53.698;10.078;2023-03-20T01:14:40;101458.88;;;12.73;100.00
15487;BME280;7845;53.698;10.078;2023-03-20T01:17:14;101457.16;;;12.74;100.00
15487;BME280;7845;53.698;10.078;2023-03-20T01:19:41;101449.25;;;12.78;100.00
15487;BME280;7845;53.698;10.078;2023-03-20T01:22:06;101455.38;;;12.73;100.00
15487;BME280;7845;53.698;10.078;2023-03-20T01:24:32;101461.56;;;12.64;100.00
15487;BME280;7845;53.698;10.078;2023-03-20T01:26:58;101456.34;;;12.61;100.00
15487;BME280;7845;53.698;10.078;2023-03-20T01:29:27;101459.81;;;12.62;100.00
15487;BME280;7845;53.698;10.078;2023-03-20T01:31:53;101453.78;;;12.43;100.00
15487;BME280;7845;53.698;10.078;2023-03-20T01:34:19;101468.69;;;12.28;100.00
15487;BME280;7845;53.698;10.078;2023-03-20T01:36:56;101460.84;;;12.32;100.00
15487;BME280;7845;53.698;10.078;2023-03-20T01:39:31;101452.97;;;12.31;100.00
15487;BME280;7845;53.698;10.078;2023-03-20T01:41:58;101460.88;;;12.20;100.00
15487;BME280;7845;53.698;10.078;2023-03-20T01:44:27;101459.19;;;12.01;100.00
15487;BME280;7845;53.698;10.078;2023-03-20T01:46:57;101462.72;;;11.82;100.00
15487;BME280;7845;53.698;10.078;2023-03-20T01:51:49;101459.22;;;11.69;100.00
15487;BME280;7845;53.698;10.078;2023-03-20T01:54:18;101457.47;;;11.53;100.00
15487;BME280;7845;53.698;10.078;2023-03-20T01:56:49;101466.19;;;11.56;100.00
15487;BME280;7845;53.698;10.078;2023-03-20T01:59:23;101454.91;;;11.44;100.00
15487;BME280;7845;53.698;10.078;2023-03-20T02:01:50;101447.91;;;11.47;100.00
15487;BME280;7845;53.698;10.078;2023-03-20T02:04:17;101453.13;;;11.50;100.00
15487;BME280;7845;53.698;10.078;2023-03-20T02:06:44;101440.06;;;11.55;100.00
15487;BME280;7845;53.698;10.078;2023-03-20T02:09:10;101446.19;;;11.46;100.00
15487;BME280;7845;53.698;10.078;2023-03-20T02:11:37;101440.06;;;11.50;100.00
15487;BME280;7845;53.698;10.078;2023-03-20T02:14:04;101444.44;;;11.38;100.00
15487;BME280;7845;53.698;10.078;2023-03-20T02:16:30;101434.84;;;11.32;100.00
15487;BME280;7845;53.698;10.078;2023-03-20T02:18:56;101435.69;;;11.48;100.00
15487;BME280;7845;53.698;10.078;2023-03-20T02:27:55;101440.06;;;11.35;100.00
15487;BME280;7845;53.698;10.078;2023-03-20T02:30:39;101436.59;;;11.41;100.00
15487;BME280;7845;53.698;10.078;2023-03-20T02:33:31;101432.25;;;11.31;100.00
15487;BME280;7845;53.698;10.078;2023-03-20T02:38:57;101433.13;;;11.25;100.00
15487;BME280;7845;53.698;10.078;2023-03-20T02:41:41;101430.50;;;11.16;100.00
15487;BME280;7845;53.698;10.078;2023-03-20T02:47:01;101430.47;;;11.30;100.00
15487;BME280;7845;53.698;10.078;2023-03-20T02:52:15;101419.16;;;11.26;100.00
15487;BME280;7845;53.698;10.078;2023-03-20T03:00:26;101419.16;;;11.20;100.00
15487;BME280;7845;53.698;10.078;2023-03-20T03:05:31;101420.03;;;11.16;100.00
15487;BME280;7845;53.698;10.078;2023-03-20T03:08:01;101420.03;;;11.10;100.00
15487;BME280;7845;53.698;10.078;2023-03-20T03:10:31;101422.66;;;11.13;100.00
15487;BME280;7845;53.698;10.078;2023-03-20T03:12:59;101414.81;;;11.19;100.00
15487;BME280;7845;53.698;10.078;2023-03-20T03:15:41;101406.09;;;11.13;100.00
15487;BME280;7845;53.698;10.078;2023-03-20T03:18:14;101406.94;;;10.93;100.00
15487;BME280;7845;53.698;10.078;2023-03-20T03:20:41;101403.50;;;10.87;100.00
15487;BME280;7845;53.698;10.078;2023-03-20T03:23:17;101409.56;;;10.99;100.00
15487;BME280;7845;53.698;10.078;2023-03-20T03:25:46;101401.72;;;10.80;100.00
15487;BME280;7845;53.698;10.078;2023-03-20T03:28:35;101400.88;;;10.90;100.00
15487;BME280;7845;53.698;10.078;2023-03-20T03:31:06;101393.03;;;10.94;100.00
15487;BME280;7845;53.698;10.078;2023-03-20T03:33:33;101387.81;;;10.96;100.00
15487;BME280;7845;53.698;10.078;2023-03-20T03:38:53;101382.59;;;11.09;100.00
15487;BME280;7845;53.698;10.078;2023-03-20T03:41:25;101384.34;;;11.14;100.00
15487;BME280;7845;53.698;10.078;2023-03-20T03:44:06;101382.59;;;11.19;100.00
15487;BME280;7845;53.698;10.078;2023-03-20T03:46:53;101377.34;;;11.23;100.00
15487;BME280;7845;53.698;10.078;2023-03-20T03:49:25;101377.34;;;11.20;100.00
15487;BME280;7845;53.698;10.078;2023-03-20T03:51:56;101379.97;;;11.22;100.00
15487;BME280;7845;53.698;10.078;2023-03-20T03:54:36;101374.75;;;11.16;100.00
15487;BME280;7845;53.698;10.078;2023-03-20T03:57:04;101378.25;;;11.10;100.00
15487;BME280;7845;53.698;10.078;2023-03-20T03:59:37;101382.56;;;11.20;100.00
15487;BME280;7845;53.698;10.078;2023-03-20T04:02:07;101386.94;;;11.24;100.00
15487;BME280;7845;53.698;10.078;2023-03-20T04:04:35;101390.44;;;11.16;100.00
15487;BME280;7845;53.698;10.078;2023-03-20T04:07:01;101390.44;;;11.05;100.00
15487;BME280;7845;53.698;10.078;2023-03-20T04:09:27;101398.25;;;11.23;100.00
15487;BME280;7845;53.698;10.078;2023-03-20T04:11:53;101386.94;;;11.12;100.00
15487;BME280;7845;53.698;10.078;2023-03-20T04:14:19;101382.59;;;11.31;100.00
15487;BME280;7845;53.698;10.078;2023-03-20T04:16:45;101384.34;;;11.20;100.00
15487;BME280;7845;53.698;10.078;2023-03-20T04:19:10;101385.19;;;11.28;100.00
15487;BME280;7845;53.698;10.078;2023-03-20T04:21:36;101380.84;;;11.24;100.00
15487;BME280;7845;53.698;10.078;2023-03-20T04:24:02;101377.34;;;11.17;100.00
15487;BME280;7845;53.698;10.078;2023-03-20T04:26:27;101377.38;;;11.16;100.00
15487;BME280;7845;53.698;10.078;2023-03-20T04:28:53;101379.13;;;11.14;100.00
15487;BME280;7845;53.698;10.078;2023-03-20T04:31:18;101379.97;;;11.08;100.00
15487;BME280;7845;53.698;10.078;2023-03-20T04:33:44;101373.91;;;10.98;100.00
15487;BME280;7845;53.698;10.078;2023-03-20T04:36:14;101379.13;;;11.14;100.00
15487;BME280;7845;53.698;10.078;2023-03-20T04:38:40;101373.88;;;11.18;100.00
15487;BME280;7845;53.698;10.078;2023-03-20T04:41:06;101376.50;;;11.17;100.00
15487;BME280;7845;53.698;10.078;2023-03-20T04:43:32;101372.16;;;11.02;100.00
15487;BME280;7845;53.698;10.078;2023-03-20T04:45:59;101371.28;;;11.23;100.00
15487;BME280;7845;53.698;10.078;2023-03-20T04:48:24;101372.13;;;11.17;100.00
15487;BME280;7845;53.698;10.078;2023-03-20T04:50:52;101374.72;;;11.20;100.00
15487;BME280;7845;53.698;10.078;2023-03-20T04:53:17;101373.00;;;11.13;100.00
15487;BME280;7845;53.698;10.078;2023-03-20T04:55:44;101373.88;;;11.24;100.00
15487;BME280;7845;53.698;10.078;2023-03-20T04:58:10;101368.66;;;11.15;100.00
15487;BME280;7845;53.698;10.078;2023-03-20T05:00:35;101370.41;;;11.13;100.00
15487;BME280;7845;53.698;10.078;2023-03-20T05:03:01;101374.75;;;11.16;100.00
15487;BME280;7845;53.698;10.078;2023-03-20T05:05:27;101387.81;;;11.03;100.00
15487;BME280;7845;53.698;10.078;2023-03-20T05:07:53;101389.56;;;11.04;100.00
15487;BME280;7845;53.698;10.078;2023-03-20T05:10:19;101378.25;;;11.13;100.00
15487;BME280;7845;53.698;10.078;2023-03-20T05:12:44;101383.47;;;11.13;100.00
15487;BME280;7845;53.698;10.078;2023-03-20T05:15:10;101386.94;;;11.06;100.00
15487;BME280;7845;53.698;10.078;2023-03-20T05:17:36;101394.78;;;11.10;100.00
15487;BME280;7845;53.698;10.078;2023-03-20T05:20:02;101393.91;;;11.16;100.00
15487;BME280;7845;53.698;10.078;2023-03-20T05:22:28;101390.41;;;11.20;100.00
15487;BME280;7845;53.698;10.078;2023-03-20T05:24:53;101389.56;;;11.23;100.00
15487;BME280;7845;53.698;10.078;2023-03-20T05:27:18;101383.47;;;11.16;100.00
15487;BME280;7845;53.698;10.078;2023-03-20T05:29:44;101391.28;;;10.95;100.00
15487;BME280;7845;53.698;10.078;2023-03-20T05:32:09;101391.28;;;11.02;100.00
15487;BME280;7845;53.698;10.078;2023-03-20T05:34:36;101389.56;;;11.03;100.00
15487;BME280;7845;53.698;10.078;2023-03-20T05:37:02;101397.38;;;11.03;100.00
15487;BME280;7845;53.698;10.078;2023-03-20T05:39:27;101401.75;;;10.98;100.00
15487;BME280;7845;53.698;10.078;2023-03-20T05:41:53;101405.22;;;10.95;100.00
15487;BME280;7845;53.698;10.078;2023-03-20T05:44:19;101404.34;;;10.90;100.00
15487;BME280;7845;53.698;10.078;2023-03-20T05:46:45;101419.97;;;10.68;100.00
15487;BME280;7845;53.698;10.078;2023-03-20T05:49:10;101408.69;;;10.75;100.00
15487;BME280;7845;53.698;10.078;2023-03-20T05:51:35;101415.66;;;10.83;100.00
15487;BME280;7845;53.698;10.078;2023-03-20T05:54:01;101421.75;;;10.91;100.00
15487;BME280;7845;53.698;10.078;2023-03-20T05:56:26;101421.75;;;10.84;100.00
15487;BME280;7845;53.698;10.078;2023-03-20T05:58:52;101418.28;;;10.98;100.00
15487;BME280;7845;53.698;10.078;2023-03-20T06:01:17;101420.00;;;10.90;100.00
15487;BME280;7845;53.698;10.078;2023-03-20T06:03:46;101422.66;;;10.98;100.00
15487;BME280;7845;53.698;10.078;2023-03-20T06:06:12;101415.66;;;11.03;100.00
15487;BME280;7845;53.698;10.078;2023-03-20T06:08:38;101428.75;;;11.06;100.00
15487;BME280;7845;53.698;10.078;2023-03-20T06:11:03;101418.28;;;11.12;100.00
15487;BME280;7845;53.698;10.078;2023-03-20T06:13:28;101420.91;;;11.14;100.00
15487;BME280;7845;53.698;10.078;2023-03-20T06:15:54;101420.91;;;11.15;100.00
15487;BME280;7845;53.698;10.078;2023-03-20T06:18:20;101427.00;;;11.05;100.00
15487;BME280;7845;53.698;10.078;2023-03-20T06:20:45;101420.91;;;11.17;100.00
15487;BME280;7845;53.698;10.078;2023-03-20T06:23:15;101428.75;;;11.20;100.00
15487;BME280;7845;53.698;10.078;2023-03-20T06:25:41;101428.75;;;11.20;100.00
15487;BME280;7845;53.698;10.078;2023-03-20T06:28:07;101427.88;;;11.24;100.00
15487;BME280;7845;53.698;10.078;2023-03-20T06:30:32;101426.16;;;11.10;100.00
15487;BME280;7845;53.698;10.078;2023-03-20T06:32:57;101434.84;;;11.19;100.00
15487;BME280;7845;53.698;10.078;2023-03-20T06:35:23;101438.34;;;11.25;100.00
15487;BME280;7845;53.698;10.078;2023-03-20T06:37:48;101432.25;;;11.22;100.00
15487;BME280;7845;53.698;10.078;2023-03-20T06:40:13;101430.47;;;11.24;100.00
15487;BME280;7845;53.698;10.078;2023-03-20T06:42:39;101435.72;;;11.22;100.00
15487;BME280;7845;53.698;10.078;2023-03-20T06:45:05;101434.84;;;11.26;100.00
15487;BME280;7845;53.698;10.078;2023-03-20T06:47:30;101437.47;;;11.25;100.00
15487;BME280;7845;53.698;10.078;2023-03-20T06:49:56;101440.06;;;11.35;100.00
15487;BME280;7845;53.698;10.078;2023-03-20T06:52:21;101442.69;;;11.35;100.00
15487;BME280;7845;53.698;10.078;2023-03-20T06:54:47;101443.56;;;11.40;100.00
15487;BME280;7845;53.698;10.078;2023-03-20T06:57:12;101446.19;;;11.46;100.00
15487;BME280;7845;53.698;10.078;2023-03-20T06:59:39;101438.31;;;11.48;100.00
15487;BME280;7845;53.698;10.078;2023-03-20T07:02:10;101442.66;;;11.50;100.00
15487;BME280;7845;53.698;10.078;2023-03-20T07:04:35;101444.44;;;11.26;100.00
15487;BME280;7845;53.698;10.078;2023-03-20T07:07:01;101445.31;;;11.34;100.00
15487;BME280;7845;53.698;10.078;2023-03-20T07:09:27;101455.75;;;11.43;100.00
15487;BME280;7845;53.698;10.078;2023-03-20T07:11:52;101453.16;;;11.43;100.00
15487;BME280;7845;53.698;10.078;2023-03-20T07:14:19;101456.63;;;11.45;100.00
15487;BME280;7845;53.698;10.078;2023-03-20T07:16:46;101451.38;;;11.45;100.00
15487;BME280;7845;53.698;10.078;2023-03-20T07:19:12;101460.97;;;11.55;100.00
15487;BME280;7845;53.698;10.078;2023-03-20T07:21:38;101459.25;;;11.61;100.00
15487;BME280;7845;53.698;10.078;2023-03-20T07:24:03;101454.03;;;11.43;100.00
15487;BME280;7845;53.698;10.078;2023-03-20T07:26:30;101447.91;;;11.47;100.00
15487;BME280;7845;53.698;10.078;2023-03-20T07:28:56;101461.84;;;11.63;100.00
15487;BME280;7845;53.698;10.078;2023-03-20T07:31:26;101459.22;;;11.68;100.00
15487;BME280;7845;53.698;10.078;2023-03-20T07:33:54;101459.22;;;11.48;100.00
15487;BME280;7845;53.698;10.078;2023-03-20T07:36:19;101455.75;;;11.52;100.00
15487;BME280;7845;53.698;10.078;2023-03-20T07:38:45;101459.22;;;11.60;100.00
15487;BME280;7845;53.698;10.078;2023-03-20T07:41:10;101465.34;;;11.74;100.00
15487;BME280;7845;53.698;10.078;2023-03-20T07:43:36;101462.72;;;11.80;100.00
15487;BME280;7845;53.698;10.078;2023-03-20T07:46:06;101463.56;;;12.03;100.00
15487;BME280;7845;53.698;10.078;2023-03-20T07:48:32;101471.38;;;12.08;100.00
15487;BME280;7845;53.698;10.078;2023-03-20T07:50:59;101472.25;;;12.04;100.00
15487;BME280;7845;53.698;10.078;2023-03-20T07:53:24;101463.53;;;12.08;100.00
15487;BME280;7845;53.698;10.078;2023-03-20T07:55:50;101459.16;;;12.11;100.00
15487;BME280;7845;53.698;10.078;2023-03-20T07:58:15;101466.13;;;12.15;100.00
15487;BME280;7845;53.698;10.078;2023-03-20T08:00:42;101456.50;;;12.16;100.00
15487;BME280;7845;53.698;10.078;2023-03-20T08:03:08;101458.25;;;12.20;100.00
15487;BME280;7845;53.698;10.078;2023-03-20T08:05:36;101460.88;;;12.20;100.00
15487;BME280;7845;53.698;10.078;2023-03-20T08:08:02;101458.19;;;12.35;100.00
15487;BME280;7845;53.698;10.078;2023-03-20T08:10:27;101461.72;;;12.22;100.00
15487;BME280;7845;53.698;10.078;2023-03-20T08:12:53;101463.41;;;12.44;100.00
15487;BME280;7845;53.698;10.078;2023-03-20T08:15:18;101463.44;;;12.35;100.00
15487;BME280;7845;53.698;10.078;2023-03-20T08:17:44;101467.78;;;12.42;100.00
15487;BME280;7845;53.698;10.078;2023-03-20T08:20:11;101474.75;;;12.43;100.00
15487;BME280;7845;53.698;10.078;2023-03-20T08:22:37;101477.38;;;12.43;100.00
15487;BME280;7845;53.698;10.078;2023-03-20T08:25:03;101477.44;;;12.30;100.00
15487;BME280;7845;53.698;10.078;2023-03-20T08:27:28;101478.25;;;12.41;100.00
15487;BME280;7845;53.698;10.078;2023-03-20T08:29:54;101483.47;;;12.41;100.00
15487;BME280;7845;53.698;10.078;2023-03-20T08:32:19;101479.97;;;12.43;100.00
15487;BME280;7845;53.698;10.078;2023-03-20T08:34:44;101489.59;;;12.34;100.00
15487;BME280;7845;53.698;10.078;2023-03-20T08:37:10;101487.88;;;12.36;100.00
15487;BME280;7845;53.698;10.078;2023-03-20T08:39:36;101496.63;;;12.29;100.00
15487;BME280;7845;53.698;10.078;2023-03-20T08:42:03;101493.13;;;12.31;100.00
15487;BME280;7845;53.698;10.078;2023-03-20T08:44:29;101493.09;;;12.37;100.00
15487;BME280;7845;53.698;10.078;2023-03-20T08:46:54;101491.31;;;12.54;100.00
15487;BME280;7845;53.698;10.078;2023-03-20T08:49:20;101499.13;;;12.57;100.00
15487;BME280;7845;53.698;10.078;2023-03-20T08:51:46;101490.41;;;12.57;100.00
15487;BME280;7845;53.698;10.078;2023-03-20T08:54:11;101486.94;;;12.50;100.00
15487;BME280;7845;53.698;10.078;2023-03-20T08:56:36;101493.06;;;12.48;100.00
15487;BME280;7845;53.698;10.078;2023-03-20T08:59:02;101479.03;;;12.62;100.00
15487;BME280;7845;53.698;10.078;2023-03-20T09:01:27;101483.31;;;12.75;100.00
15487;BME280;7845;53.698;10.078;2023-03-20T09:03:53;101485.06;;;12.78;100.00
15487;BME280;7845;53.698;10.078;2023-03-20T09:06:18;101485.06;;;12.76;100.00
15487;BME280;7845;53.698;10.078;2023-03-20T09:08:44;101481.53;;;12.84;100.00
15487;BME280;7845;53.698;10.078;2023-03-20T09:11:09;101485.06;;;12.80;100.00
15487;BME280;7845;53.698;10.078;2023-03-20T09:13:35;101482.41;;;12.86;100.00
15487;BME280;7845;53.698;10.078;2023-03-20T09:16:00;101481.50;;;12.90;100.00
15487;BME280;7845;53.698;10.078;2023-03-20T09:18:26;101482.38;;;12.89;100.00
15487;BME280;7845;53.698;10.078;2023-03-20T09:20:51;101477.19;;;12.80;100.00
15487;BME280;7845;53.698;10.078;2023-03-20T09:23:18;101472.84;;;12.75;100.00
15487;BME280;7845;53.698;10.078;2023-03-20T09:25:43;101471.97;;;12.76;100.00
15487;BME280;7845;53.698;10.078;2023-03-20T09:28:10;101471.13;;;12.71;100.00
15487;BME280;7845;53.698;10.078;2023-03-20T09:30:35;101481.53;;;12.85;100.00
15487;BME280;7845;53.698;10.078;2023-03-20T09:33:01;101476.16;;;13.03;100.00
15487;BME280;7845;53.698;10.078;2023-03-20T09:35:26;101478.00;;;12.91;100.00
15487;BME280;7845;53.698;10.078;2023-03-20T09:37:52;101477.09;;;12.98;100.00
15487;BME280;7845;53.698;10.078;2023-03-20T09:40:27;101490.19;;;12.93;100.00
15487;BME280;7845;53.698;10.078;2023-03-20T09:42:56;101484.16;;;12.87;100.00
15487;BME280;7845;53.698;10.078;2023-03-20T09:45:48;101486.69;;;12.97;100.00
15487;BME280;7845;53.698;10.078;2023-03-20T09:48:48;101494.50;;;13.12;100.00
15487;BME280;7845;53.698;10.078;2023-03-20T09:51:47;101490.16;;;12.99;100.00
15487;BME280;7845;53.698;10.078;2023-03-20T09:56:48;101491.91;;;13.03;100.00
15487;BME280;7845;53.698;10.078;2023-03-20T09:59:14;101495.31;;;13.20;100.00
15487;BME280;7845;53.698;10.078;2023-03-20T10:01:46;101499.47;;;13.47;100.00
15487;BME280;7845;53.698;10.078;2023-03-20T10:04:13;101486.28;;;13.58;100.00
15487;BME280;7845;53.698;10.078;2023-03-20T10:06:38;101489.72;;;13.67;100.00
15487;BME280;7845;53.698;10.078;2023-03-20T10:09:16;101493.16;;;13.68;100.00
15487;BME280;7845;53.698;10.078;2023-03-20T10:14:43;101489.75;;;13.61;100.00
15487;BME280;7845;53.698;10.078;2023-03-20T10:17:42;101488.88;;;13.59;100.00
15487;BME280;7845;53.698;10.078;2023-03-20T10:20:13;101485.34;;;13.65;100.00
15487;BME280;7845;53.698;10.078;2023-03-20T10:22:47;101473.91;;;13.73;100.00
15487;BME280;7845;53.698;10.078;2023-03-20T10:25:31;101471.34;;;13.67;100.00
15487;BME280;7845;53.698;10.078;2023-03-20T10:28:03;101472.06;;;13.81;100.00
15487;BME280;7845;53.698;10.078;2023-03-20T10:31:02;101469.53;;;13.71;100.00
15487;BME280;7845;53.698;10.078;2023-03-20T10:33:52;101463.50;;;13.64;100.00
15487;BME280;7845;53.698;10.078;2023-03-20T10:36:32;101474.09;;;13.52;100.00
15487;BME280;7845;53.698;10.078;2023-03-20T10:39:23;101474.03;;;13.57;100.00
15487;BME280;7845;53.698;10.078;2023-03-20T10:42:00;101469.84;;;13.36;100.00
15487;BME280;7845;53.698;10.078;2023-03-20T10:44:37;101465.22;;;13.65;100.00
15487;BME280;7845;53.698;10.078;2023-03-20T10:47:06;101458.78;;;13.97;100.00
15487;BME280;7845;53.698;10.078;2023-03-20T10:49:53;101452.38;;;14.23;100.00
15487;BME280;7845;53.698;10.078;2023-03-20T10:52:30;101446.06;;;14.39;100.00
15487;BME280;7845;53.698;10.078;2023-03-20T10:55:17;101430.38;;;14.35;100.00
15487;BME280;7845;53.698;10.078;2023-03-20T10:57:52;101436.13;;;14.61;100.00
15487;BME280;7845;53.698;10.078;2023-03-20T11:00:22;101436.25;;;14.52;100.00
15487;BME280;7845;53.698;10.078;2023-03-20T11:02:49;101434.81;;;14.27;100.00
15487;BME280;7845;53.698;10.078;2023-03-20T11:05:31;101438.28;;;14.30;100.00
15487;BME280;7845;53.698;10.078;2023-03-20T11:08:08;101436.69;;;14.17;100.00
15487;BME280;7845;53.698;10.078;2023-03-20T11:10:36;101429.81;;;14.04;100.00
15487;BME280;7845;53.698;10.078;2023-03-20T11:13:24;101424.59;;;14.03;100.00
15487;BME280;7845;53.698;10.078;2023-03-20T11:15:51;101429.38;;;14.45;100.00
15487;BME280;7845;53.698;10.078;2023-03-20T11:18:17;101430.03;;;14.59;100.00
15487;BME280;7845;53.698;10.078;2023-03-20T11:20:46;101410.91;;;14.51;100.00
15487;BME280;7845;53.698;10.078;2023-03-20T11:23:16;101411.25;;;14.86;100.00
15487;BME280;7845;53.698;10.078;2023-03-20T11:28:37;101402.72;;;14.72;100.00
15487;BME280;7845;53.698;10.078;2023-03-20T11:33:41;101385.63;;;14.39;100.00
15487;BME280;7845;53.698;10.078;2023-03-20T11:36:28;101397.03;;;14.42;100.00
15487;BME280;7845;53.698;10.078;2023-03-20T11:39:11;101396.25;;;14.30;100.00
15487;BME280;7845;53.698;10.078;2023-03-20T11:41:50;101388.53;;;14.18;100.00
15487;BME280;7845;53.698;10.078;2023-03-20T11:44:23;101395.69;;;14.04;100.00
15487;BME280;7845;53.698;10.078;2023-03-20T11:49:28;101401.72;;;14.15;100.00
15487;BME280;7845;53.698;10.078;2023-03-20T11:52:11;101387.41;;;13.63;100.00
15487;BME280;7845;53.698;10.078;2023-03-20T11:54:45;101396.97;;;13.70;100.00
15487;BME280;7845;53.698;10.078;2023-03-20T11:57:30;101393.28;;;13.88;100.00
15487;BME280;7845;53.698;10.078;2023-03-20T11:59:56;101400.44;;;13.73;100.00
15487;BME280;7845;53.698;10.078;2023-03-20T12:02:23;101403.53;;;14.07;100.00
15487;BME280;7845;53.698;10.078;2023-03-20T12:04:49;101387.81;;;14.06;100.00
15487;BME280;7845;53.698;10.078;2023-03-20T12:07:32;101387.47;;;14.36;100.00
15487;BME280;7845;53.698;10.078;2023-03-20T12:10:05;101377.50;;;14.59;100.00
15487;BME280;7845;53.698;10.078;2023-03-20T12:15:23;101371.41;;;14.56;100.00
15487;BME280;7845;53.698;10.078;2023-03-20T12:21:10;101367.34;;;14.35;100.00
15487;BME280;7845;53.698;10.078;2023-03-20T12:23:51;101374.28;;;14.39;100.00
15487;BME280;7845;53.698;10.078;2023-03-20T12:26:35;101370.97;;;14.22;100.00
15487;BME280;7845;53.698;10.078;2023-03-20T12:32:04;101374.44;;;14.25;100.00
15487;BME280;7845;53.698;10.078;2023-03-20T12:35:22;101386.38;;;14.51;100.00
15487;BME280;7845;53.698;10.078;2023-03-20T12:37:27;101374.69;;;14.70;100.00
15487;BME280;7845;53.698;10.078;2023-03-20T12:39:54;101365.06;;;14.72;100.00
15487;BME280;7845;53.698;10.078;2023-03-20T12:42:47;101352.94;;;14.62;100.00
15487;BME280;7845;53.698;10.078;2023-03-20T12:45:24;101346.81;;;14.61;100.00
15487;BME280;7845;53.698;10.078;2023-03-20T12:48:05;101354.34;;;14.84;100.00
15487;BME280;7845;53.698;10.078;2023-03-20T12:50:40;101348.56;;;15.16;100.00
15487;BME280;7845;53.698;10.078;2023-03-20T12:53:25;101343.41;;;15.59;100.00
15487;BME280;7845;53.698;10.078;2023-03-20T12:58:24;101314.06;;;15.80;100.00
15487;BME280;7845;53.698;10.078;2023-03-20T13:03:51;101294.50;;;15.91;100.00
15487;BME280;7845;53.698;10.078;2023-03-20T13:06:54;101290.75;;;16.01;100.00
15487;BME280;7845;53.698;10.078;2023-03-20T13:12:49;101284.31;;;15.75;100.00
15487;BME280;7845;53.698;10.078;2023-03-20T13:18:06;101288.28;;;15.51;100.00
15487;BME280;7845;53.698;10.078;2023-03-20T13:20:35;101291.34;;;15.27;100.00
15487;BME280;7845;53.698;10.078;2023-03-20T13:23:16;101289.66;;;15.26;100.00
15487;BME280;7845;53.698;10.078;2023-03-20T13:31:47;101307.63;;;15.00;100.00
15487;BME280;7845;53.698;10.078;2023-03-20T13:39:44;101316.16;;;14.63;100.00
15487;BME280;7845;53.698;10.078;2023-03-20T13:42:21;101326.94;;;14.44;100.00
15487;BME280;7845;53.698;10.078;2023-03-20T13:44:50;101315.09;;;14.12;100.00
15487;BME280;7845;53.698;10.078;2023-03-20T13:47:21;101321.16;;;14.16;100.00
15487;BME280;7845;53.698;10.078;2023-03-20T13:52:28;101325.63;;;14.11;100.00
15487;BME280;7845;53.698;10.078;2023-03-20T13:55:22;101318.69;;;14.04;100.00
15487;BME280;7845;53.698;10.078;2023-03-20T14:00:39;101317.56;;;14.23;100.00
15487;BME280;7845;53.698;10.078;2023-03-20T14:03:26;101321.91;;;14.27;100.00
15487;BME280;7845;53.698;10.078;2023-03-20T14:05:53;101303.44;;;14.31;100.00
15487;BME280;7845;53.698;10.078;2023-03-20T14:13:42;101307.81;;;14.34;100.00
15487;BME280;7845;53.698;10.078;2023-03-20T14:16:09;101309.56;;;14.32;100.00
15487;BME280;7845;53.698;10.078;2023-03-20T14:18:40;101311.47;;;14.21;100.00